Main page
METAR-TAF:

METAR-TAF

Airports :

Mihail Kogălniceanu International Airport

Constanţa, Romania

latitude: 44-20N, longitude: 028-26E, elevation: 97 m

Current weather observation

The report was made 41 minutes ago, at 20:00 UTC
Wind 6 kt from the West/Northwest
Temperature 0°C
Humidity 86%
Pressure 1029 hPa
Visibility 10 km or more
no clouds below 1500 m and no cumulonimbus

METAR: LRCK 242000Z 29006KT CAVOK 00/M02 Q1029 NOSIG

Time: 22:41 (20:41 UTC)

Forecast

The report was made 3 hours and 41 minutes ago, at 17:00 UTC
Forecast valid from 24 at 18 UTC to 25 at 18 UTC
Wind 7 kt from the North/Northwest
Visibility 10 km or more
no clouds below 1500 m and no cumulonimbus
Probability 30% :
Temporary
from 25 at 03 UTC to 25 at 06 UTC
Visibility: 3000 m
mist
Becoming
from 25 at 07 UTC to 25 at 09 UTC
Wind 10 kt from the West

TAF: LRCK 241700Z 2418/2518 34007KT CAVOK PROB30 TEMPO 2503/2506 3000 BR BECMG 2507/2509 28010KT

Weather observations and forecasts of more than 4000 airports (METAR and TAF reports).

The available stations are represented by yellow and red dots on the map.

Hover mouse over dot to see the name of the station.

Then click to see weather observations and forecasts.

To change the map : click on the green buttons with a black cross to zoom in, on the green button with a dash to zoom out, or on the green arrows for adjacent maps.


METAR-TAF: